Time;durP1;ratioP1;P1;durP2;ratioP2;P2;SDS_P1;SDS_P2;PMS_P1;PMS_P2;Temp;Humidity;BMP_temperature;BMP_pressure;BME280_temperature;BME280_humidity;BME280_pressure;Samples;Min_cycle;Max_cycle;Signal;HPM_P1;HPM_P2
2022/11/27 00:01:48;;;;;;;9.50;3.88;;;7.40;89.20;;;;;;5071631;28;20040;-36
2022/11/27 00:04:14;;;;;;;10.88;3.90;;;7.50;89.20;;;;;;5071654;28;20049;-33
2022/11/27 00:06:40;;;;;;;9.95;4.03;;;7.40;89.10;;;;;;5071937;28;20383;-34
2022/11/27 00:09:10;;;;;;;11.90;4.13;;;7.40;89.00;;;;;;5071716;28;20404;-33
2022/11/27 00:11:38;;;;;;;8.82;4.18;;;7.40;89.00;;;;;;5071614;28;20032;-34
2022/11/27 00:14:04;;;;;;;11.52;4.15;;;7.40;89.00;;;;;;5071902;28;20028;-33
2022/11/27 00:16:30;;;;;;;9.20;3.78;;;7.40;88.90;;;;;;5071708;28;20020;-33
2022/11/27 00:18:56;;;;;;;9.15;4.10;;;7.30;88.80;;;;;;5071668;28;20468;-32
2022/11/27 00:21:30;;;;;;;10.35;3.65;;;7.30;88.80;;;;;;5071583;28;20032;-33
2022/11/27 00:23:57;;;;;;;12.35;4.25;;;7.30;88.80;;;;;;5071647;28;20024;-33
2022/11/27 00:26:22;;;;;;;10.55;3.88;;;7.30;88.80;;;;;;5071864;28;20029;-33
2022/11/27 00:28:48;;;;;;;8.63;4.00;;;7.30;88.90;;;;;;5071583;28;20111;-35
2022/11/27 00:31:17;;;;;;;8.85;4.00;;;7.30;88.90;;;;;;5071475;28;20476;-33
2022/11/27 00:33:43;;;;;;;9.20;3.33;;;7.20;88.80;;;;;;5072046;28;20074;-33
2022/11/27 00:36:10;;;;;;;9.43;4.05;;;7.20;88.80;;;;;;5071676;28;20021;-33
2022/11/27 00:38:37;;;;;;;10.63;3.60;;;7.20;88.80;;;;;;5072025;28;20104;-33
2022/11/27 00:41:11;;;;;;;9.70;4.03;;;7.30;88.80;;;;;;5072166;28;20048;-33
2022/11/27 00:43:37;;;;;;;6.60;3.72;;;7.20;88.80;;;;;;5071950;28;20029;-36
2022/11/27 00:46:03;;;;;;;10.98;4.57;;;7.20;88.70;;;;;;5071722;28;20043;-32
2022/11/27 00:48:29;;;;;;;9.45;3.92;;;7.20;88.70;;;;;;5071716;28;20468;-33
2022/11/27 00:51:03;;;;;;;7.55;3.88;;;7.20;88.70;;;;;;5053473;28;20017;-33
2022/11/27 00:53:29;;;;;;;7.45;4.10;;;7.20;88.70;;;;;;5053914;28;20025;-33
2022/11/27 00:55:55;;;;;;;8.77;4.03;;;7.20;88.60;;;;;;5071867;28;20476;-33
2022/11/27 00:58:21;;;;;;;8.02;4.03;;;7.20;88.60;;;;;;5053864;28;20021;-33
2022/11/27 01:00:54;;;;;;;8.32;3.90;;;7.20;88.60;;;;;;5071678;28;20020;-33
2022/11/27 01:03:19;;;;;;;8.85;4.15;;;7.10;88.60;;;;;;5071774;28;20372;-33
2022/11/27 01:05:45;;;;;;;7.22;3.50;;;7.10;88.60;;;;;;5071994;28;20033;-33
2022/11/27 01:08:11;;;;;;;9.05;3.58;;;7.00;88.50;;;;;;5071530;28;20342;-33
2022/11/27 01:10:36;;;;;;;7.00;3.97;;;7.00;88.60;;;;;;5071587;28;20127;-33
2022/11/27 01:13:03;;;;;;;9.70;4.35;;;7.00;88.60;;;;;;5071767;28;20139;-33
2022/11/27 01:15:28;;;;;;;8.52;3.90;;;7.00;88.60;;;;;;5071598;28;20096;-33
2022/11/27 01:17:54;;;;;;;10.25;4.50;;;7.00;88.60;;;;;;5071570;28;20060;-33
2022/11/27 01:20:19;;;;;;;8.85;4.00;;;7.00;88.60;;;;;;5071523;28;20025;-33
2022/11/27 01:22:45;;;;;;;11.73;4.07;;;7.00;88.50;;;;;;5071628;28;20012;-33
2022/11/27 01:25:10;;;;;;;12.13;4.18;;;7.00;88.60;;;;;;5053439;28;20017;-34
2022/11/27 01:27:36;;;;;;;7.22;3.80;;;7.00;88.50;;;;;;5071513;28;20020;-38
2022/11/27 01:30:02;;;;;;;8.13;4.10;;;7.00;88.50;;;;;;5071392;28;20078;-33
2022/11/27 01:32:28;;;;;;;8.75;3.70;;;7.00;88.50;;;;;;5071237;28;20024;-33
2022/11/27 01:34:53;;;;;;;10.35;4.13;;;7.00;88.50;;;;;;5071330;28;20482;-33
2022/11/27 01:37:19;;;;;;;12.02;4.43;;;6.90;88.40;;;;;;5071486;28;20533;-33
2022/11/27 01:39:44;;;;;;;10.02;4.10;;;6.90;88.40;;;;;;5071458;28;20391;-32
2022/11/27 01:42:10;;;;;;;8.88;4.32;;;6.90;88.40;;;;;;5071353;28;20035;-33
2022/11/27 01:44:36;;;;;;;8.82;4.00;;;6.80;88.40;;;;;;5071362;28;20125;-33
2022/11/27 01:47:11;;;;;;;9.18;4.10;;;6.80;88.40;;;;;;5071388;28;20482;-33
2022/11/27 01:49:50;;;;;;;9.20;4.65;;;6.80;88.40;;;;;;5074920;28;20024;-33
2022/11/27 01:52:26;;;;;;;7.45;4.03;;;6.80;88.50;;;;;;5074877;28;20024;-32
2022/11/27 01:54:51;;;;;;;10.65;4.55;;;6.70;88.50;;;;;;5074851;28;20025;-33
2022/11/27 01:57:22;;;;;;;8.13;4.45;;;6.70;88.50;;;;;;5074908;28;20020;-33
2022/11/27 01:59:51;;;;;;;11.05;4.53;;;6.70;88.50;;;;;;5074849;28;20025;-33
2022/11/27 02:02:17;;;;;;;11.93;4.65;;;6.70;88.50;;;;;;5056617;28;20048;-37
2022/11/27 02:04:42;;;;;;;10.77;4.97;;;6.60;88.50;;;;;;5074678;28;20493;-33
2022/11/27 02:07:08;;;;;;;9.95;4.47;;;6.70;89.20;;;;;;5056634;28;20027;-32
2022/11/27 02:09:34;;;;;;;10.93;4.70;;;6.60;88.50;;;;;;5074290;28;20041;-33
2022/11/27 02:12:38;;;;;;;8.98;4.28;;;6.60;88.50;;;;;;5074622;28;20036;-33
2022/11/27 02:15:28;;;;;;;10.18;4.55;;;6.60;88.50;;;;;;5074232;28;20035;-33
2022/11/27 02:17:56;;;;;;;12.25;4.88;;;6.60;88.50;;;;;;5074673;28;20043;-33
2022/11/27 02:20:31;;;;;;;16.92;5.47;;;6.50;88.40;;;;;;5074602;28;20048;-33
2022/11/27 02:23:29;;;;;;;11.88;4.88;;;6.60;88.50;;;;;;5074399;28;20025;-32
2022/11/27 02:26:09;;;;;;;9.55;4.93;;;6.60;88.50;;;;;;5056406;28;20613;-33
2022/11/27 02:28:58;;;;;;;10.07;4.90;;;6.60;88.50;;;;;;5074492;28;20074;-33
2022/11/27 02:32:06;;;;;;;10.50;6.00;;;6.60;88.50;;;;;;5063398;28;20031;-32
2022/11/27 02:34:37;;;;;;;13.05;5.45;;;6.50;88.40;;;;;;5074303;28;20108;-34
2022/11/27 02:37:33;;;;;;;10.05;4.80;;;6.50;88.40;;;;;;5074132;28;20030;-35
2022/11/27 02:40:05;;;;;;;11.60;4.93;;;6.50;88.40;;;;;;5074152;28;20467;-33
2022/11/27 02:42:42;;;;;;;10.77;4.78;;;6.50;88.40;;;;;;5074005;28;20031;-33
2022/11/27 02:45:14;;;;;;;12.00;5.03;;;6.50;88.40;;;;;;5074013;28;20035;-33
2022/11/27 02:47:44;;;;;;;9.82;5.10;;;6.50;88.40;;;;;;5073853;28;20582;-33
2022/11/27 02:50:15;;;;;;;10.60;5.03;;;6.60;88.40;;;;;;5073913;28;20036;-34
2022/11/27 02:52:44;;;;;;;8.63;4.43;;;6.50;89.00;;;;;;5073786;28;20032;-34
2022/11/27 02:55:14;;;;;;;12.48;5.03;;;6.60;88.50;;;;;;5073695;28;20032;-36
2022/11/27 02:57:42;;;;;;;8.15;4.28;;;6.60;88.40;;;;;;5073806;28;20024;-32
2022/11/27 03:00:09;;;;;;;9.25;4.47;;;6.60;88.50;;;;;;5072587;28;20048;-33
2022/11/27 03:02:40;;;;;;;11.18;4.80;;;6.60;88.40;;;;;;5073732;28;20464;-32
2022/11/27 03:05:11;;;;;;;10.98;4.90;;;6.60;88.30;;;;;;5073535;28;20483;-32
2022/11/27 03:07:39;;;;;;;9.77;4.55;;;6.60;88.20;;;;;;5055547;28;20031;-32
2022/11/27 03:10:11;;;;;;;11.75;5.00;;;6.70;88.30;;;;;;5073349;28;20373;-32
2022/11/27 03:12:37;;;;;;;12.10;4.78;;;6.70;88.20;;;;;;5073341;28;20040;-31
2022/11/27 03:15:05;;;;;;;10.95;4.25;;;6.70;88.10;;;;;;5073414;28;20514;-32
2022/11/27 03:17:47;;;;;;;12.75;5.35;;;6.70;88.10;;;;;;5073376;28;20041;-32
2022/11/27 03:20:38;;;;;;;8.77;4.28;;;6.80;88.00;;;;;;5073234;28;20028;-33
2022/11/27 03:23:04;;;;;;;10.15;4.10;;;6.80;87.90;;;;;;5072387;28;20045;-39
2022/11/27 03:25:29;;;;;;;9.30;3.67;;;6.80;87.90;;;;;;5073146;28;20082;-32
2022/11/27 03:28:00;;;;;;;10.05;3.95;;;6.90;87.90;;;;;;5055259;28;20420;-32
2022/11/27 03:30:25;;;;;;;12.15;4.43;;;6.90;87.70;;;;;;5073050;28;20115;-32
2022/11/27 03:32:51;;;;;;;11.63;3.78;;;6.90;87.70;;;;;;5072977;28;20572;-32
2022/11/27 03:35:20;;;;;;;11.55;3.95;;;6.90;87.60;;;;;;5072830;28;20483;-32
2022/11/27 03:37:46;;;;;;;7.57;3.78;;;6.90;87.50;;;;;;5054792;28;20056;-32
2022/11/27 03:40:13;;;;;;;6.18;3.38;;;6.90;87.50;;;;;;5072862;28;20029;-33
2022/11/27 03:43:01;;;;;;;7.63;3.53;;;6.90;87.40;;;;;;5072496;28;20032;-34
2022/11/27 03:45:42;;;;;;;8.68;3.65;;;6.90;87.30;;;;;;5072507;28;20036;-34
2022/11/27 03:48:31;;;;;;;5.38;3.53;;;7.00;87.40;;;;;;5072442;28;20032;-34
2022/11/27 03:51:26;;;;;;;7.22;3.65;;;7.00;87.30;;;;;;5072270;28;20032;-33
2022/11/27 03:54:16;;;;;;;11.50;3.50;;;7.00;87.20;;;;;;5063161;28;20109;-34
2022/11/27 03:57:10;;;;;;;6.35;2.85;;;7.00;87.20;;;;;;5072250;28;20090;-34
2022/11/27 03:59:39;;;;;;;9.48;3.65;;;7.00;87.10;;;;;;5072175;28;20119;-33
2022/11/27 04:02:16;;;;;;;7.40;3.35;;;7.00;87.10;;;;;;5072102;28;20044;-33
2022/11/27 04:04:42;;;;;;;8.43;3.28;;;7.10;87.10;;;;;;5071896;28;20028;-33
2022/11/27 04:07:14;;;;;;;8.82;3.40;;;7.10;87.10;;;;;;5072290;28;20036;-32
2022/11/27 04:09:40;;;;;;;7.25;3.28;;;7.00;87.00;;;;;;5071895;28;20054;-33
2022/11/27 04:12:06;;;;;;;7.47;3.22;;;7.10;87.00;;;;;;5071757;28;20195;-35
2022/11/27 04:14:31;;;;;;;7.95;3.10;;;7.10;87.10;;;;;;5071855;28;20024;-35
2022/11/27 04:16:57;;;;;;;6.30;3.13;;;7.10;87.00;;;;;;5071960;28;20070;-33
2022/11/27 04:19:22;;;;;;;9.40;3.25;;;7.10;87.00;;;;;;5072039;28;20035;-33
2022/11/27 04:21:48;;;;;;;8.02;3.25;;;7.10;86.90;;;;;;5072076;28;20070;-33
2022/11/27 04:24:13;;;;;;;7.78;3.03;;;7.10;87.50;;;;;;5072060;28;20028;-33
2022/11/27 04:26:39;;;;;;;5.15;2.92;;;7.10;86.90;;;;;;5071876;28;20033;-33
2022/11/27 04:29:04;;;;;;;6.03;3.00;;;7.10;86.90;;;;;;5071909;28;20039;-33
2022/11/27 04:31:30;;;;;;;6.75;3.00;;;7.10;86.90;;;;;;5071707;28;20028;-33
2022/11/27 04:33:55;;;;;;;6.53;2.97;;;7.20;86.90;;;;;;5071688;28;20102;-33
2022/11/27 04:36:21;;;;;;;7.40;3.30;;;7.20;86.90;;;;;;5053934;28;20031;-33
2022/11/27 04:38:47;;;;;;;6.78;3.13;;;7.20;86.80;;;;;;5054213;28;20135;-34
2022/11/27 04:41:12;;;;;;;7.45;2.47;;;7.20;86.80;;;;;;5071733;28;20480;-34
2022/11/27 04:43:38;;;;;;;8.70;2.80;;;7.20;86.80;;;;;;5072035;28;20590;-33
2022/11/27 04:46:03;;;;;;;6.15;2.75;;;7.20;86.70;;;;;;5072154;28;20035;-33
2022/11/27 04:48:29;;;;;;;7.72;2.97;;;7.20;86.70;;;;;;5072042;28;20063;-33
2022/11/27 04:50:55;;;;;;;7.95;2.90;;;7.20;86.60;;;;;;5071984;28;20043;-33
2022/11/27 04:53:20;;;;;;;5.70;2.83;;;7.20;86.60;;;;;;5072151;28;20033;-33
2022/11/27 04:55:46;;;;;;;7.13;2.92;;;7.20;86.50;;;;;;5071970;28;20020;-33
2022/11/27 04:58:11;;;;;;;4.90;2.50;;;7.20;86.40;;;;;;5072020;28;20482;-33
2022/11/27 05:00:37;;;;;;;5.85;2.92;;;7.20;86.30;;;;;;5071941;28;20048;-33
2022/11/27 05:03:03;;;;;;;8.05;2.70;;;7.20;86.30;;;;;;5071836;28;20032;-33
2022/11/27 05:05:28;;;;;;;6.78;2.70;;;7.20;86.30;;;;;;5071856;28;20024;-33
2022/11/27 05:07:54;;;;;;;6.88;2.80;;;7.20;86.30;;;;;;5071958;28;20017;-33
2022/11/27 05:10:19;;;;;;;4.88;2.95;;;7.20;86.20;;;;;;5071749;28;20186;-33
2022/11/27 05:12:45;;;;;;;5.88;3.13;;;7.20;86.20;;;;;;5071856;28;20020;-33
2022/11/27 05:15:10;;;;;;;5.30;2.70;;;7.20;86.10;;;;;;5071658;28;20033;-33
2022/11/27 05:17:36;;;;;;;7.07;2.90;;;7.20;86.10;;;;;;5071951;28;20044;-33
2022/11/27 05:20:02;;;;;;;7.20;2.75;;;7.20;86.10;;;;;;5071771;28;20017;-33
2022/11/27 05:22:28;;;;;;;6.85;3.17;;;7.20;86.10;;;;;;5072428;28;20092;-33
2022/11/27 05:24:53;;;;;;;5.63;2.65;;;7.20;86.00;;;;;;5075860;28;20108;-32
2022/11/27 05:27:19;;;;;;;8.55;3.00;;;7.30;86.10;;;;;;5075720;28;20494;-32
2022/11/27 05:29:44;;;;;;;7.53;2.72;;;7.30;86.10;;;;;;5075635;28;20024;-35
2022/11/27 05:32:10;;;;;;;8.07;3.00;;;7.20;86.00;;;;;;5075398;28;20052;-31
2022/11/27 05:34:36;;;;;;;4.30;2.70;;;7.20;86.10;;;;;;5075424;28;20454;-32
2022/11/27 05:37:01;;;;;;;6.30;3.22;;;7.20;86.00;;;;;;5075427;28;20013;-31
2022/11/27 05:39:27;;;;;;;5.70;2.80;;;7.20;85.90;;;;;;5075486;28;20027;-33
2022/11/27 05:41:52;;;;;;;9.45;3.47;;;7.20;86.00;;;;;;5075257;28;20017;-34
2022/11/27 05:44:18;;;;;;;5.82;2.92;;;7.20;86.00;;;;;;5075247;28;20463;-34
2022/11/27 05:46:43;;;;;;;5.30;2.72;;;7.20;86.00;;;;;;5075240;28;20051;-34
2022/11/27 05:49:12;;;;;;;5.53;3.17;;;7.30;86.00;;;;;;5075059;28;20029;-34
2022/11/27 05:51:38;;;;;;;5.75;3.00;;;7.30;85.90;;;;;;5056945;28;20115;-33
2022/11/27 05:54:03;;;;;;;6.85;2.88;;;7.30;85.80;;;;;;5075001;28;20115;-36
2022/11/27 05:56:29;;;;;;;5.35;2.70;;;7.30;85.80;;;;;;5074985;28;20449;-40
2022/11/27 05:58:54;;;;;;;3.85;2.75;;;7.30;85.70;;;;;;5074967;28;20028;-35
2022/11/27 06:01:20;;;;;;;6.70;3.38;;;7.30;85.60;;;;;;5074772;28;20111;-34
2022/11/27 06:03:45;;;;;;;9.32;3.55;;;7.30;85.60;;;;;;5074843;28;20046;-34
2022/11/27 06:06:14;;;;;;;6.28;3.13;;;7.30;85.50;;;;;;5056730;28;20066;-33
2022/11/27 06:08:40;;;;;;;6.72;3.50;;;7.30;85.60;;;;;;5074642;28;20651;-31
2022/11/27 06:11:08;;;;;;;6.53;3.25;;;7.30;85.60;;;;;;5074644;28;20024;-33
2022/11/27 06:13:34;;;;;;;6.65;3.13;;;7.30;85.50;;;;;;5074297;28;20021;-33
2022/11/27 06:16:07;;;;;;;5.70;2.58;;;7.40;85.60;;;;;;5074194;28;20051;-32
2022/11/27 06:18:33;;;;;;;5.80;3.22;;;7.30;85.40;;;;;;5074342;28;20017;-36
2022/11/27 06:20:58;;;;;;;9.88;3.10;;;7.30;85.40;;;;;;5074455;28;20031;-32
2022/11/27 06:23:24;;;;;;;6.32;3.03;;;7.40;85.50;;;;;;5074374;28;20021;-33
2022/11/27 06:25:50;;;;;;;9.32;3.28;;;7.40;85.40;;;;;;5074319;28;20029;-33
2022/11/27 06:28:15;;;;;;;5.70;3.20;;;7.40;85.40;;;;;;5074236;28;20023;-33
2022/11/27 06:30:41;;;;;;;6.78;3.28;;;7.40;85.40;;;;;;5074272;28;20021;-33
2022/11/27 06:33:06;;;;;;;7.18;3.58;;;7.40;85.40;;;;;;5056248;28;20028;-33
2022/11/27 06:35:32;;;;;;;9.68;4.70;;;7.40;85.30;;;;;;5074190;28;20027;-33
2022/11/27 06:37:57;;;;;;;9.57;4.95;;;7.40;85.40;;;;;;5074171;28;20094;-33
2022/11/27 06:40:23;;;;;;;7.72;4.10;;;7.40;85.30;;;;;;5074029;28;20099;-33
2022/11/27 06:42:48;;;;;;;9.25;5.30;;;7.40;85.30;;;;;;5074027;28;20025;-33
2022/11/27 06:45:14;;;;;;;8.05;4.43;;;7.40;85.20;;;;;;5055824;28;20032;-34
2022/11/27 06:47:39;;;;;;;9.27;5.15;;;7.40;85.30;;;;;;5073946;28;20028;-33
2022/11/27 06:50:06;;;;;;;7.80;4.68;;;7.40;85.20;;;;;;5073977;28;20214;-33
2022/11/27 06:52:31;;;;;;;7.97;4.07;;;7.40;85.80;;;;;;5073812;28;20028;-33
2022/11/27 06:54:57;;;;;;;7.45;3.50;;;7.40;85.10;;;;;;5073768;28;20487;-33
2022/11/27 06:57:22;;;;;;;9.05;4.30;;;7.40;85.10;;;;;;5073963;28;20046;-33
2022/11/27 06:59:48;;;;;;;6.57;3.92;;;7.40;85.10;;;;;;5073838;28;20125;-33
2022/11/27 07:02:14;;;;;;;9.95;4.32;;;7.50;85.20;;;;;;5073740;28;20021;-33
2022/11/27 07:04:39;;;;;;;9.50;4.25;;;7.50;85.10;;;;;;5073464;28;20092;-36
2022/11/27 07:07:05;;;;;;;7.28;4.20;;;7.50;85.10;;;;;;5073683;28;20032;-33
2022/11/27 07:09:30;;;;;;;8.77;4.60;;;7.50;85.00;;;;;;5073416;28;20051;-33
2022/11/27 07:11:56;;;;;;;6.68;4.10;;;7.50;85.00;;;;;;5073470;28;20100;-32
2022/11/27 07:14:21;;;;;;;10.10;4.88;;;7.50;85.00;;;;;;5073319;28;20040;-33
2022/11/27 07:16:47;;;;;;;8.00;4.10;;;7.50;85.00;;;;;;5073597;28;20078;-33
2022/11/27 07:19:13;;;;;;;9.73;4.13;;;7.50;85.00;;;;;;5073434;28;20123;-33
2022/11/27 07:21:39;;;;;;;9.15;4.63;;;7.50;85.00;;;;;;5073400;28;20100;-34
2022/11/27 07:24:05;;;;;;;9.60;5.00;;;7.50;85.00;;;;;;5073412;28;20104;-33
2022/11/27 07:26:30;;;;;;;6.95;4.10;;;7.50;84.90;;;;;;5073339;28;20093;-33
2022/11/27 07:28:56;;;;;;;9.20;4.50;;;7.50;85.00;;;;;;5073307;28;20073;-34
2022/11/27 07:31:26;;;;;;;7.88;3.78;;;7.50;85.00;;;;;;5073165;28;20035;-33
2022/11/27 07:33:53;;;;;;;8.32;3.97;;;7.50;85.00;;;;;;5073069;28;20025;-36
2022/11/27 07:36:21;;;;;;;8.90;4.13;;;7.50;84.90;;;;;;5073150;28;20032;-33
2022/11/27 07:38:47;;;;;;;6.25;4.13;;;7.60;85.00;;;;;;5073172;28;20024;-33
2022/11/27 07:41:13;;;;;;;6.20;3.83;;;7.60;84.90;;;;;;5073120;28;20433;-33
2022/11/27 07:43:39;;;;;;;7.82;4.47;;;7.60;85.00;;;;;;5073079;28;20026;-42
2022/11/27 07:46:10;;;;;;;8.35;4.07;;;7.50;85.00;;;;;;5072312;28;20534;-34
2022/11/27 07:48:36;;;;;;;8.15;4.35;;;7.50;84.90;;;;;;5072803;28;20020;-33
2022/11/27 07:51:05;;;;;;;9.15;4.55;;;7.50;84.90;;;;;;5072908;28;20437;-32
2022/11/27 07:53:30;;;;;;;8.82;4.65;;;7.60;85.00;;;;;;5072803;28;20551;-33
2022/11/27 07:55:59;;;;;;;9.38;4.93;;;7.50;84.80;;;;;;5072820;28;20051;-33
2022/11/27 07:58:24;;;;;;;9.02;4.82;;;7.50;84.90;;;;;;5072713;28;20346;-33
2022/11/27 08:00:50;;;;;;;9.73;4.90;;;7.50;84.90;;;;;;5072836;28;20021;-33
2022/11/27 08:03:15;;;;;;;10.30;4.80;;;7.50;84.90;;;;;;5072794;28;20024;-34
2022/11/27 08:05:42;;;;;;;7.82;4.43;;;7.50;84.90;;;;;;5072634;28;20028;-33
2022/11/27 08:08:07;;;;;;;9.68;5.13;;;7.50;84.90;;;;;;5054641;28;20032;-33
2022/11/27 08:10:37;;;;;;;8.60;4.82;;;7.50;85.00;;;;;;5072496;28;20041;-33
2022/11/27 08:13:03;;;;;;;9.52;4.80;;;7.50;85.00;;;;;;5054467;28;20028;-35
2022/11/27 08:15:28;;;;;;;7.70;4.75;;;7.50;85.00;;;;;;5072086;28;20069;-35
2022/11/27 08:17:54;;;;;;;10.20;5.18;;;7.50;85.00;;;;;;5072480;28;20103;-35
2022/11/27 08:20:20;;;;;;;10.38;5.47;;;7.50;85.00;;;;;;5072319;28;20417;-34
2022/11/27 08:22:46;;;;;;;9.38;5.50;;;7.50;85.20;;;;;;5072358;28;20032;-35
2022/11/27 08:25:12;;;;;;;10.85;5.45;;;7.50;85.20;;;;;;5072301;28;20471;-34
2022/11/27 08:27:37;;;;;;;10.65;5.53;;;7.50;85.30;;;;;;5072383;28;20032;-35
2022/11/27 08:30:04;;;;;;;11.07;6.07;;;7.50;85.40;;;;;;5072042;28;20021;-35
2022/11/27 08:32:30;;;;;;;10.00;5.28;;;7.50;85.50;;;;;;5072144;28;20032;-35
2022/11/27 08:34:56;;;;;;;10.77;5.65;;;7.50;85.40;;;;;;5072110;28;20074;-35
2022/11/27 08:37:21;;;;;;;12.07;5.47;;;7.50;85.50;;;;;;5071873;28;20032;-34
2022/11/27 08:39:47;;;;;;;12.60;5.45;;;7.50;85.50;;;;;;5071950;28;20102;-35
2022/11/27 08:42:12;;;;;;;13.73;6.00;;;7.50;85.50;;;;;;5071969;28;20082;-34
2022/11/27 08:44:38;;;;;;;11.18;5.80;;;7.50;85.50;;;;;;5072330;28;20472;-34
2022/11/27 08:47:04;;;;;;;12.10;5.53;;;7.50;85.60;;;;;;5071937;28;20020;-36
2022/11/27 08:49:29;;;;;;;9.68;5.63;;;7.50;85.60;;;;;;5054106;28;20423;-35
2022/11/27 08:51:55;;;;;;;12.48;5.82;;;7.50;85.70;;;;;;5072041;28;20519;-35
2022/11/27 08:54:20;;;;;;;14.10;5.88;;;7.50;85.80;;;;;;5071902;28;20032;-34
2022/11/27 08:56:46;;;;;;;12.82;5.47;;;7.50;85.80;;;;;;5072143;28;20021;-35
2022/11/27 08:59:11;;;;;;;10.00;5.78;;;7.40;85.80;;;;;;5075697;28;20020;-34
2022/11/27 09:01:37;;;;;;;12.45;5.82;;;7.50;86.00;;;;;;5076119;28;20044;-35
2022/11/27 09:04:03;;;;;;;10.23;6.15;;;7.40;86.00;;;;;;5076351;28;20065;-37
2022/11/27 09:06:31;;;;;;;11.80;5.65;;;7.40;86.00;;;;;;5076073;28;20028;-35
2022/11/27 09:08:58;;;;;;;8.15;4.82;;;7.40;86.10;;;;;;5076097;28;20040;-35
2022/11/27 09:11:24;;;;;;;9.20;4.82;;;7.40;86.30;;;;;;5075988;28;20051;-35
2022/11/27 09:13:49;;;;;;;9.10;4.68;;;7.40;86.50;;;;;;5075962;28;20028;-36
2022/11/27 09:16:17;;;;;;;8.77;4.80;;;7.50;86.70;;;;;;5076034;28;20020;-36
2022/11/27 09:18:44;;;;;;;8.70;5.43;;;7.40;86.60;;;;;;5076404;28;20027;-34
2022/11/27 09:21:11;;;;;;;7.72;5.10;;;7.50;86.60;;;;;;5076026;28;20099;-35
2022/11/27 09:23:38;;;;;;;11.50;5.47;;;7.50;86.60;;;;;;5075833;28;20035;-41
2022/11/27 09:26:10;;;;;;;10.88;5.93;;;7.50;86.50;;;;;;5075811;28;20020;-36
2022/11/27 09:28:36;;;;;;;9.43;5.32;;;7.50;86.50;;;;;;5075673;28;20476;-35
2022/11/27 09:31:03;;;;;;;13.10;5.57;;;7.50;86.50;;;;;;5075915;28;20013;-35
2022/11/27 09:33:31;;;;;;;9.40;5.22;;;7.60;86.50;;;;;;5075518;28;20052;-36
2022/11/27 09:35:57;;;;;;;10.23;5.65;;;7.60;86.50;;;;;;5075498;28;20020;-36
2022/11/27 09:38:23;;;;;;;9.02;5.57;;;7.60;86.50;;;;;;5075316;28;20025;-36
2022/11/27 09:40:51;;;;;;;10.18;5.40;;;7.60;86.60;;;;;;5075259;28;20012;-36
2022/11/27 09:43:25;;;;;;;10.75;5.32;;;7.70;86.60;;;;;;5075292;28;20027;-36
2022/11/27 09:45:54;;;;;;;10.13;5.18;;;7.70;86.60;;;;;;5075197;28;20020;-37
2022/11/27 09:48:41;;;;;;;8.85;5.30;;;7.70;86.50;;;;;;5075462;28;20013;-34
2022/11/27 09:51:21;;;;;;;11.45;5.07;;;7.80;86.50;;;;;;5075255;28;20029;-36
2022/11/27 09:53:51;;;;;;;8.45;4.60;;;7.80;86.50;;;;;;5075244;28;20021;-38
2022/11/27 09:56:18;;;;;;;9.80;5.25;;;7.80;86.50;;;;;;5075423;28;20414;-36
2022/11/27 09:58:54;;;;;;;9.35;5.55;;;7.80;86.50;;;;;;5075622;28;20128;-36
2022/11/27 10:01:29;;;;;;;9.77;5.15;;;7.80;86.40;;;;;;5075087;28;20043;-35
2022/11/27 10:03:55;;;;;;;9.93;5.40;;;7.80;86.50;;;;;;5075225;28;20365;-40
2022/11/27 10:06:33;;;;;;;11.68;5.60;;;7.90;86.50;;;;;;5074904;28;20092;-34
2022/11/27 10:09:20;;;;;;;8.32;4.72;;;7.90;87.10;;;;;;5074351;28;20131;-34
2022/11/27 10:11:49;;;;;;;9.52;5.03;;;7.90;86.40;;;;;;5075391;28;20113;-36
2022/11/27 10:14:23;;;;;;;6.95;5.38;;;7.90;86.40;;;;;;5074655;28;20052;-33
2022/11/27 10:17:01;;;;;;;10.27;5.35;;;7.90;86.40;;;;;;5074915;28;20025;-36
2022/11/27 10:19:45;;;;;;;9.75;5.20;;;8.00;86.40;;;;;;5056736;28;20021;-36
2022/11/27 10:22:44;;;;;;;9.73;5.35;;;8.00;86.40;;;;;;5075069;28;20024;-35
2022/11/27 10:25:19;;;;;;;9.70;5.03;;;8.00;86.40;;;;;;5074764;28;20024;-34
2022/11/27 10:28:03;;;;;;;10.55;5.20;;;8.10;86.30;;;;;;5074652;28;20029;-37
2022/11/27 10:30:29;;;;;;;;;;;8.10;86.40;;;;;;5074958;28;20434;-34
2022/11/27 10:32:57;;;;;;;7.72;4.53;;;8.00;86.20;;;;;;5074639;28;20326;-35
2022/11/27 10:35:26;;;;;;;8.57;5.30;;;8.00;87.00;;;;;;5074355;28;20021;-34
2022/11/27 10:37:57;;;;;;;11.10;5.07;;;8.00;86.40;;;;;;5074599;28;20062;-35
2022/11/27 10:40:28;;;;;;;10.00;5.25;;;8.00;86.40;;;;;;5074407;28;20017;-35
2022/11/27 10:43:17;;;;;;;7.65;4.63;;;8.00;86.40;;;;;;5074442;28;20020;-34
2022/11/27 10:45:53;;;;;;;8.77;5.20;;;8.10;86.40;;;;;;5074421;28;20027;-35
2022/11/27 10:48:19;;;;;;;8.18;4.95;;;8.10;86.50;;;;;;5074290;28;20024;-35
2022/11/27 10:50:47;;;;;;;7.60;5.18;;;8.10;87.10;;;;;;5074033;28;20461;-36
2022/11/27 10:53:30;;;;;;;8.25;5.05;;;8.10;86.50;;;;;;5073909;28;20492;-35
2022/11/27 10:56:07;;;;;;;9.07;4.82;;;8.10;86.50;;;;;;5074068;28;20111;-33
2022/11/27 10:58:39;;;;;;;8.85;4.97;;;8.10;86.50;;;;;;5074082;28;20107;-36
2022/11/27 11:01:13;;;;;;;8.18;5.20;;;8.20;86.50;;;;;;5073659;28;20435;-43
2022/11/27 11:03:39;;;;;;;9.63;5.40;;;8.10;86.40;;;;;;5073802;28;20043;-35
2022/11/27 11:06:25;;;;;;;9.38;5.05;;;8.20;86.50;;;;;;5073727;28;20463;-36
2022/11/27 11:09:22;;;;;;;12.48;5.18;;;8.20;86.50;;;;;;5073766;28;20056;-35
2022/11/27 11:11:48;;;;;;;8.43;4.75;;;8.20;86.50;;;;;;5073062;28;20040;-36
2022/11/27 11:14:25;;;;;;;7.65;4.75;;;8.30;86.50;;;;;;5073735;28;20077;-37
2022/11/27 11:16:52;;;;;;;9.75;4.55;;;8.30;86.40;;;;;;5073831;28;20070;-35
2022/11/27 11:19:44;;;;;;;11.93;5.22;;;8.30;86.40;;;;;;5073437;28;20322;-35
2022/11/27 11:22:17;;;;;;;9.45;4.88;;;8.30;86.40;;;;;;5069067;28;20040;-34
2022/11/27 11:24:51;;;;;;;7.03;4.28;;;8.30;86.60;;;;;;5055347;28;20021;-28
2022/11/27 11:27:21;;;;;;;9.13;4.68;;;8.40;86.40;;;;;;5073447;28;20032;-30
2022/11/27 11:29:53;;;;;;;7.80;5.03;;;8.40;86.30;;;;;;5073430;28;20032;-28
2022/11/27 11:32:21;;;;;;;10.07;4.85;;;8.40;86.30;;;;;;5073411;28;20487;-32
2022/11/27 11:34:55;;;;;;;11.45;4.85;;;8.40;86.40;;;;;;5073184;28;20025;-34
2022/11/27 11:37:27;;;;;;;7.60;4.38;;;8.50;86.40;;;;;;5073101;28;20031;-27
2022/11/27 11:40:04;;;;;;;7.18;4.68;;;8.50;86.40;;;;;;5072945;28;20021;-29
2022/11/27 11:42:32;;;;;;;6.82;4.40;;;8.50;86.40;;;;;;5073023;28;20111;-27
2022/11/27 11:45:09;;;;;;;8.07;4.20;;;8.50;86.40;;;;;;5072958;28;20024;-26
2022/11/27 11:47:42;;;;;;;7.55;4.03;;;8.50;86.50;;;;;;5072861;28;20056;-29
2022/11/27 11:50:13;;;;;;;5.97;4.07;;;8.50;86.70;;;;;;5072679;28;20463;-27
2022/11/27 11:53:07;;;;;;;6.88;4.28;;;8.50;86.70;;;;;;5072648;28;20092;-27
2022/11/27 11:55:58;;;;;;;6.28;3.90;;;8.50;86.60;;;;;;5072666;28;20028;-31
2022/11/27 11:58:59;;;;;;;6.95;4.30;;;8.50;86.60;;;;;;5072602;28;20476;-30
2022/11/27 12:01:36;;;;;;;6.28;4.25;;;8.60;86.70;;;;;;5072659;28;20407;-31
2022/11/27 12:04:25;;;;;;;7.70;4.07;;;8.60;86.80;;;;;;5072654;28;20025;-29
2022/11/27 12:07:18;;;;;;;7.82;4.25;;;8.60;86.70;;;;;;5072609;28;20021;-27
2022/11/27 12:09:50;;;;;;;8.00;4.20;;;8.60;86.70;;;;;;5072206;28;20139;-30
2022/11/27 12:12:30;;;;;;;7.35;4.60;;;8.60;86.80;;;;;;5072329;28;20031;-28
2022/11/27 12:15:01;;;;;;;5.72;4.00;;;8.60;87.10;;;;;;5072519;28;20040;-31
2022/11/27 12:17:32;;;;;;;8.05;3.88;;;8.60;87.30;;;;;;5072365;28;20388;-30
2022/11/27 12:20:04;;;;;;;6.68;4.22;;;8.70;87.50;;;;;;5072351;28;20050;-30
2022/11/27 12:23:00;;;;;;;10.48;4.35;;;8.60;87.40;;;;;;5072307;28;20396;-29
2022/11/27 12:25:32;;;;;;;5.97;3.83;;;8.70;87.60;;;;;;5072559;28;20059;-31
2022/11/27 12:28:22;;;;;;;5.33;3.73;;;8.70;87.60;;;;;;5072471;28;20028;-27
2022/11/27 12:31:14;;;;;;;5.28;3.60;;;8.70;87.70;;;;;;5072250;28;20024;-29
2022/11/27 12:34:19;;;;;;;7.57;3.97;;;8.70;88.50;;;;;;5072383;28;20450;-29
2022/11/27 12:37:23;;;;;;;9.65;3.78;;;8.70;88.90;;;;;;5034261;28;20024;-30
2022/11/27 12:40:10;;;;;;;6.68;3.80;;;8.70;88.70;;;;;;5072317;28;20107;-33
2022/11/27 12:42:46;;;;;;;6.50;3.95;;;8.70;89.40;;;;;;5072090;28;20023;-27
2022/11/27 12:45:19;;;;;;;4.93;3.70;;;8.70;89.00;;;;;;5054135;28;20028;-30
2022/11/27 12:47:58;;;;;;;5.78;3.50;;;8.70;89.00;;;;;;5072110;28;20020;-28
2022/11/27 12:50:42;;;;;;;4.43;3.20;;;8.70;89.20;;;;;;5072202;28;20020;-28
2022/11/27 12:53:30;;;;;;;5.00;3.33;;;8.70;90.10;;;;;;5072257;28;20371;-30
2022/11/27 12:56:34;;;;;;;7.07;4.20;;;8.70;90.30;;;;;;5054066;28;20097;-28
2022/11/27 12:59:21;;;;;;;6.18;3.95;;;8.60;90.30;;;;;;5054061;28;20031;-26
2022/11/27 13:01:51;;;;;;;8.63;4.38;;;8.60;90.20;;;;;;5072306;28;20040;-26
2022/11/27 13:04:32;;;;;;;6.78;4.13;;;8.60;90.20;;;;;;5071729;28;20033;-29
2022/11/27 13:07:05;;;;;;;7.45;4.40;;;8.60;90.20;;;;;;5072045;28;20100;-30
2022/11/27 13:09:58;;;;;;;6.72;4.45;;;8.60;90.10;;;;;;5071625;28;20048;-27
2022/11/27 13:12:28;;;;;;;9.07;4.13;;;8.60;90.10;;;;;;5071216;28;20071;-29
2022/11/27 13:15:05;;;;;;;7.18;4.05;;;8.60;90.20;;;;;;5071212;28;20028;-35